AirNav   Air Wisconsin pilot careers
 
 1722 users online  

3N6 Old Bridge Airport
Old Bridge, New Jersey, USA

GOING TO OLD BRIDGE?


FAA INFORMATION EFFECTIVE 20 JUNE 2019

Location

FAA Identifier: 3N6
Lat/Long: 40-19-47.5920N / 074-20-48.4330W
40-19.793200N / 074-20.807217W
40.3298867 / -74.3467869
(estimated)
Elevation: 87 ft. / 27 m (estimated)
Variation: 13W (2010)
From city: 5 miles S of OLD BRIDGE, NJ
Time zone: UTC -4 (UTC -5 during Standard Time)
Zip code: 08831

Airport Operations

Airport use: Open to the public
Activation date: 02/1966
Control tower: no
ARTCC: NEW YORK CENTER
FSS: MILLVILLE FLIGHT SERVICE STATION
NOTAMs facility: MIV (NOTAM-D service available)
Attendance: DAYLIGHT HOURS
Wind indicator: lighted
Segmented circle: yes
Lights: ACTVT REIL RWY 6 & 24; MIRL RWY 06/24 - CTAF.
Beacon: white-green (lighted land airport)
ACTVT ROTG BCN - CTAF.

Airport Communications

CTAF/UNICOM: 123.075
MC GUIRE APPROACH: 124.15
MC GUIRE DEPARTURE: 124.15
WX AWOS-3PT at BLM (13 nm SE): 121.625 (732-938-3330)
WX AWOS-AV at N12 (18 nm SE): 122.8 (732-363-6471)
WX AWOS-3 at LDJ (18 nm N): 124.025 (908-862-7383)

Nearby radio navigation aids

VOR radial/distance  VOR name  Freq  Var
COLr288/8.6COLTS NECK VOR/DME115.4011W
RBVr052/10.2ROBBINSVILLE VORTAC113.8010W
GXUr043/22.4MC GUIRE VORTAC110.6012W
SBJr140/23.6SOLBERG VOR/DME112.9010W
ARDr090/26.1YARDLEY VOR/DME108.2010W
CRIr242/26.7CANARSIE VOR/DME112.3011W
CYNr017/31.0COYLE VORTAC113.4010W
JFKr247/31.9KENNEDY VOR/DME115.9012W
TEBr214/33.7TETERBORO VOR/DME108.4011W
LGAr231/34.9LA GUARDIA VOR/DME113.1012W
BWZr153/35.5BROADWAY VOR/DME114.2011W

 
NDB name  Hdg/Dist  Freq  Var  ID
LAKEHURST009/17.139611WNEL -. . .-..
CHATHAM184/24.925413WCAT -.-. .- -

Airport Services

Fuel available: 100LL
Parking: hangars and tiedowns
Airframe service: MAJOR
Powerplant service: MAJOR
Bottled oxygen: NONE
Bulk oxygen: NONE

Runway Information

Runway 6/24

Dimensions: 3594 x 50 ft. / 1095 x 15 m
Surface: asphalt, in fair condition
Runway edge lights: medium intensity
RUNWAY 6  RUNWAY 24
Latitude: 40-19.581100N40-20.004800N
Longitude: 074-21.077000W074-20.537000W
Elevation: 63.0 ft.86.0 ft.
Traffic pattern: leftright
Runway heading: 057 magnetic, 044 true237 magnetic, 224 true
Displaced threshold: 600 ft.400 ft.
Markings: nonprecision, in good conditionnonprecision, in good condition
Visual slope indicator: 2-light PAPI on left (4.00 degrees glide path)2-light PAPI on right (4.00 degrees glide path)
Runway end identifier lights: yesyes
Touchdown point: yes, no lightsyes, no lights
Obstructions: 80 ft. tree, 280 ft. from runway, 200 ft. right of centerline, 1:1 slope to clear
16 FT HNGR 53 FT FROM RWY END 200 FT L OF CNTRLN; 25 FT TREELINE 125 FT FROM RWY END ACRS CNTRLN.
40 ft. tree, 400 ft. from runway, 135 ft. left of centerline, 5:1 slope to clear
APCH SLOPE 20:1 TO DSPLCD THLD.

Airport Ownership and Management from official FAA records

Ownership: Privately-owned
Owner: MADISON INC.
182 PENSION RD
ENGLISHTOWN, NJ 07726
Phone 732-446-0303
Manager: PAUL CERNIGLIA
182 PENSION RD
ENGLISHTOWN, NJ 07726
Phone 732-446-0303

Airport Operational Statistics

Aircraft based on the field: 95
Single engine airplanes: 88
Multi engine airplanes: 6
Helicopters: 1
    
Aircraft operations: avg 40/day *
70% local general aviation
30% transient general aviation
* for 12-month period ending 30 April 2018

Additional Remarks

NO TOUCH & GO.
GCO AVBL ON FREQ 121.725 THRU MIV RADIO.
DRAG STRIP PARK & TREES E/W OF ARPT & INVOF APCH END RWY 6/24.
FOR CD USE GCO 121.725, IF UNABLE CTC MC GUIRE APCH AT 609-754-2767.

Instrument Procedures

NOTE: All procedures below are presented as PDF files. If you need a reader for these files, you should download the free Adobe Reader.

NOT FOR NAVIGATION. Please procure official charts for flight.
FAA instrument procedures published for use from 20 June 2019 at 0901Z to 19 July 2019 at 0900Z.

 
IAPs - Instrument Approach Procedures
RNAV (GPS) RWY 06   download (182KB)
RNAV (GPS) RWY 24   download (175KB)
VOR RWY 24   download (202KB)
NOTE: Special Take-Off Minimums/Departure Procedures apply   download (150KB)

Other nearby airports with instrument procedures:

KBLM - Monmouth Executive Airport (13 nm SE)
N87 - Trenton-Robbinsville Airport (14 nm SW)
39N - Princeton Airport (15 nm W)
47N - Central Jersey Regional Airport (16 nm NW)
N12 - Lakewood Airport (18 nm SE)
KNEL - Lakehurst Maxfield Field Airport (18 nm S)
KLDJ - Linden Airport (18 nm N)
 
Loc | Ops | Rwys | IFR | FBO | Links
Com | Nav | Svcs | Stats | Notes
Area around 3N6 (Old Bridge Airport)
 
Road maps at: MapQuest Bing Google
 
Aerial photo
WARNING: Photo may not be current or correct
Aerial photo of 3N6 (Old Bridge Airport)
Photo by Coleen Abrams
Photo taken 30-Sep-2007

Do you have a better or more recent aerial photo of Old Bridge Airport that you would like to share? If so, please send us your photo.

 
Sectional chart

 
Airport distance calculator
Flying to Old Bridge Airport? Find the distance to fly.

From to 3N6

Sunrise and sunset
Times for 16-Jul-2019
 Local
(UTC-4)
 Zulu
(UTC)
Morning civil twilight05:1009:10
Sunrise05:4209:42
Sunset20:2500:25
Evening civil twilight20:5700:57

Current date and time
Zulu (UTC)  16-Jul-2019 15:09:23
Local (UTC-4)  16-Jul-2019 11:09:23
 
METAR
KBLM 
14nm SE 
AWOS-3 121.625 732-938-3330
161456Z AUTO 21006KT 10SM CLR 29/18 A3010 RMK AO2 SLP193 T02940183 58002
KLDJ 
18nm N 
161455Z AUTO 27007KT 10SM CLR 30/14 A3008 RMK AO2 T02970141
KNEL 
19nm S 
161400Z 24008KT 10SM CLR 29/19 A3009 RMK AO2 SLP188 T02940189 $
KTTN 
22nm W 
ASOS 133.70 609-538-8690
161453Z 23006KT 10SM CLR 28/19 A3009 RMK AO2 SLP181 T02830189 58003
KWRI 
22nm SW 
161456Z AUTO 25007KT 10SM CLR 30/18 A3008 RMK AO2 SLP185 T02980179 58001 $
KSMQ 
23nm NW 
ASOS 120.60 908-722-2139
161453Z AUTO VRB04KT 9SM CLR 29/18 A3007 RMK AO2 SLP181 T02940178 58003
KEWR 
23nm N 
161451Z 24011KT 10SM SCT250 30/16 A3007 RMK AO2 SLP182 T03000156 58004
KMJX 
24nm S 
AWOS-3 119.875 732-244-4450
161456Z AUTO VRB03KT 10SM CLR 31/19 A3010 RMK AO2 SLP196 T03110189 58003
KJRB 
27nm NE 
161456Z AUTO 24009G44KT 200V290 10SM CLR 30/18 A3008 RMK AO2 PK WND 29044/1448 SLP186 T03000178 58003
KMMU 
27nm N 
161449Z 13009G15 KT 10SM SCY250 29/18 A3008
TAF
KTTN 
22nm W 
161120Z 1612/1712 VRB03KT P6SM FEW250 FM161500 24007KT P6SM FEW050 SCT160 FM170300 VRB04KT P6SM SCT100 BKN140 FM170600 VRB03KT P6SM BKN120
KWRI 
22nm SW 
161000Z 1610/1716 VRB05KT 9999 FEW250 QNH3002INS BECMG 1614/1615 24008KT 9999 FEW150 FEW250 QNH2998INS BECMG 1704/1705 21005KT 9999 SCT050 BKN130 BKN250 QNH2996INS TX33/1620Z TN19/1610Z
KEWR 
23nm N 
161339Z 1614/1718 VRB04KT P6SM SCT250 FM161500 25006KT P6SM SCT250 FM161800 23010G15KT P6SM BKN250 FM162300 23007KT P6SM SCT150 BKN250 FM171600 22010KT P6SM SCT150 BKN250
NOTAMs
Click for the latest NOTAMs
NOTAMs are issued by the DoD/FAA and will open in a separate window not controlled by AirNav.

 

 
 

FBO, Fuel Providers, and Aircraft Ground Support

  
 Business Name 
 
 Contact 
 
 Services / Description 
 
Fuel Prices
 
Comments
  
Old Bridge Airport 732-446-0303 Airport management, Aviation fuel, Aircraft parking (ramp or tiedown), Hangar leasing / sales, Pilots lounge / snooze room, Restrooms

More info about Old Bridge Airport
Phillips 66
100LL
AS $5.35 
 Updated 20-Jun-2019
 
   2 read write
AS=Assisted/Self Service
Update Fuel Prices
 

Aviation Businesses, Services, and Facilities

  
 Business Name 
 
 Contact 
 
 Services / Description 
 
Distance
 
Comments
  
 Old Bridge Flight School
732-483-4596
[web site]
[email]
Flight training, Aircraft rental, Aerial tours / aerial sightseeing, Aerial photography, Pilot supplies, Pilots lounge / snooze room, Public telephone, Computerized weather, ...

More info about Old Bridge Flight School
on airport  
   write
 

Would you like to see your business listed on this page?

 If your business provides an interesting product or service to pilots, flight crews, aircraft, or users of the Old Bridge Airport, you should consider listing it here.  To start the listing process, click on the button below
 
Add a business
 

Other Pages about Old Bridge Airport

Update a link
 
Copyright © AirNav, LLC. All rights reserved. Privacy Policy  Contact